sensor_id;sensor_type;location;lat;lon;timestamp;pressure;altitude;pressure_sealevel;temperature;humidity
34696;BME280;20918;51.138;17.370;2023-03-25T00:02:29;99160.41;;;8.73;74.91
34696;BME280;20918;51.138;17.370;2023-03-25T00:05:38;99164.20;;;8.72;74.87
34696;BME280;20918;51.138;17.370;2023-03-25T00:08:38;99163.05;;;8.70;74.81
34696;BME280;20918;51.138;17.370;2023-03-25T00:11:42;99158.40;;;8.69;74.74
34696;BME280;20918;51.138;17.370;2023-03-25T00:14:50;99165.67;;;8.66;74.78
34696;BME280;20918;51.138;17.370;2023-03-25T00:17:54;99166.64;;;8.64;74.84
34696;BME280;20918;51.138;17.370;2023-03-25T00:20:57;99162.91;;;8.61;74.70
34696;BME280;20918;51.138;17.370;2023-03-25T00:23:58;99157.15;;;8.56;74.80
34696;BME280;20918;51.138;17.370;2023-03-25T00:26:59;99153.70;;;8.53;74.85
34696;BME280;20918;51.138;17.370;2023-03-25T00:30:00;99148.48;;;8.50;74.82
34696;BME280;20918;51.138;17.370;2023-03-25T00:33:00;99158.67;;;8.47;74.87
34696;BME280;20918;51.138;17.370;2023-03-25T00:36:05;99155.11;;;8.46;74.98
34696;BME280;20918;51.138;17.370;2023-03-25T00:39:06;99141.54;;;8.44;74.94
34696;BME280;20918;51.138;17.370;2023-03-25T00:42:07;99131.70;;;8.42;74.93
34696;BME280;20918;51.138;17.370;2023-03-25T00:45:10;99129.84;;;8.39;74.99
34696;BME280;20918;51.138;17.370;2023-03-25T00:48:14;99132.48;;;8.37;75.00
34696;BME280;20918;51.138;17.370;2023-03-25T00:51:20;99132.92;;;8.36;74.99
34696;BME280;20918;51.138;17.370;2023-03-25T00:54:21;99132.34;;;8.37;75.04
34696;BME280;20918;51.138;17.370;2023-03-25T00:57:26;99135.65;;;8.36;75.08
34696;BME280;20918;51.138;17.370;2023-03-25T01:00:27;99139.02;;;8.32;75.08
34696;BME280;20918;51.138;17.370;2023-03-25T01:03:31;99144.29;;;8.29;74.98
34696;BME280;20918;51.138;17.370;2023-03-25T01:06:36;99144.54;;;8.27;74.93
34696;BME280;20918;51.138;17.370;2023-03-25T01:09:48;99138.26;;;8.28;75.08
34696;BME280;20918;51.138;17.370;2023-03-25T01:12:54;99136.81;;;8.34;75.26
34696;BME280;20918;51.138;17.370;2023-03-25T01:16:08;99139.76;;;8.40;75.10
34696;BME280;20918;51.138;17.370;2023-03-25T01:19:10;99139.10;;;8.38;75.00
34696;BME280;20918;51.138;17.370;2023-03-25T01:22:13;99136.60;;;8.36;75.03
34696;BME280;20918;51.138;17.370;2023-03-25T01:25:15;99128.62;;;8.35;74.97
34696;BME280;20918;51.138;17.370;2023-03-25T01:28:16;99119.96;;;8.28;74.88
34696;BME280;20918;51.138;17.370;2023-03-25T01:31:17;99121.07;;;8.15;74.77
34696;BME280;20918;51.138;17.370;2023-03-25T01:34:17;99123.05;;;8.04;74.91
34696;BME280;20918;51.138;17.370;2023-03-25T01:37:26;99125.42;;;7.94;75.00
34696;BME280;20918;51.138;17.370;2023-03-25T01:40:38;99125.24;;;7.78;75.06
34696;BME280;20918;51.138;17.370;2023-03-25T01:43:39;99119.65;;;7.67;75.27
34696;BME280;20918;51.138;17.370;2023-03-25T01:46:51;99123.79;;;7.58;75.51
34696;BME280;20918;51.138;17.370;2023-03-25T01:49:55;99117.04;;;7.54;75.56
34696;BME280;20918;51.138;17.370;2023-03-25T01:52:59;99111.83;;;7.47;75.65
34696;BME280;20918;51.138;17.370;2023-03-25T01:56:02;99109.80;;;7.40;75.57
34696;BME280;20918;51.138;17.370;2023-03-25T01:59:15;99101.53;;;7.35;75.83
34696;BME280;20918;51.138;17.370;2023-03-25T02:02:21;99100.06;;;7.33;75.86
34696;BME280;20918;51.138;17.370;2023-03-25T02:05:36;99096.80;;;7.32;76.00
34696;BME280;20918;51.138;17.370;2023-03-25T02:08:39;99089.54;;;7.31;76.15
34696;BME280;20918;51.138;17.370;2023-03-25T02:11:44;99086.88;;;7.34;76.29
34696;BME280;20918;51.138;17.370;2023-03-25T02:14:44;99091.94;;;7.38;76.36
34696;BME280;20918;51.138;17.370;2023-03-25T02:17:55;99091.61;;;7.43;76.41
34696;BME280;20918;51.138;17.370;2023-03-25T02:34:55;99091.35;;;7.23;76.68
34696;BME280;20918;51.138;17.370;2023-03-25T02:41:11;99088.27;;;7.18;76.69
34696;BME280;20918;51.138;17.370;2023-03-25T02:47:58;99085.88;;;6.91;76.77
34696;BME280;20918;51.138;17.370;2023-03-25T02:51:05;99088.30;;;6.82;76.68
34696;BME280;20918;51.138;17.370;2023-03-25T02:54:11;99083.63;;;6.76;76.93
34696;BME280;20918;51.138;17.370;2023-03-25T02:57:17;99083.17;;;6.67;76.98
34696;BME280;20918;51.138;17.370;2023-03-25T03:00:25;99089.67;;;6.64;77.17
34696;BME280;20918;51.138;17.370;2023-03-25T03:03:27;99088.05;;;6.66;77.35
34696;BME280;20918;51.138;17.370;2023-03-25T03:06:30;99091.91;;;6.63;77.30
34696;BME280;20918;51.138;17.370;2023-03-25T03:09:41;99088.52;;;6.65;77.51
34696;BME280;20918;51.138;17.370;2023-03-25T03:25:30;99092.19;;;6.44;77.94
34696;BME280;20918;51.138;17.370;2023-03-25T03:28:44;99091.89;;;6.35;77.87
34696;BME280;20918;51.138;17.370;2023-03-25T03:31:51;99088.36;;;6.29;77.92
34696;BME280;20918;51.138;17.370;2023-03-25T03:35:02;99087.55;;;6.17;77.81
34696;BME280;20918;51.138;17.370;2023-03-25T03:38:07;99087.03;;;6.10;78.21
34696;BME280;20918;51.138;17.370;2023-03-25T03:41:11;99089.41;;;6.11;78.34
34696;BME280;20918;51.138;17.370;2023-03-25T03:44:34;99095.70;;;6.16;78.87
34696;BME280;20918;51.138;17.370;2023-03-25T03:47:39;99093.90;;;6.23;78.63
34696;BME280;20918;51.138;17.370;2023-03-25T03:50:43;99098.63;;;6.26;78.39
34696;BME280;20918;51.138;17.370;2023-03-25T03:57:07;99099.42;;;6.35;78.28
34696;BME280;20918;51.138;17.370;2023-03-25T04:00:24;99098.73;;;6.36;78.26
34696;BME280;20918;51.138;17.370;2023-03-25T04:03:28;99101.38;;;6.32;78.08
34696;BME280;20918;51.138;17.370;2023-03-25T04:06:40;99101.88;;;6.34;78.37
34696;BME280;20918;51.138;17.370;2023-03-25T04:09:51;99106.08;;;6.38;78.79
34696;BME280;20918;51.138;17.370;2023-03-25T04:12:57;99103.19;;;6.40;78.60
34696;BME280;20918;51.138;17.370;2023-03-25T04:15:59;99106.41;;;6.44;78.72
34696;BME280;20918;51.138;17.370;2023-03-25T04:19:01;99107.38;;;6.46;78.67
34696;BME280;20918;51.138;17.370;2023-03-25T04:22:03;99106.28;;;6.47;78.48
34696;BME280;20918;51.138;17.370;2023-03-25T04:25:05;99108.39;;;6.48;78.74
34696;BME280;20918;51.138;17.370;2023-03-25T04:28:05;99105.55;;;6.52;78.40
34696;BME280;20918;51.138;17.370;2023-03-25T04:31:13;99105.34;;;6.51;78.34
34696;BME280;20918;51.138;17.370;2023-03-25T04:34:14;99106.28;;;6.54;78.51
34696;BME280;20918;51.138;17.370;2023-03-25T04:37:18;99107.23;;;6.58;78.65
34696;BME280;20918;51.138;17.370;2023-03-25T04:40:18;99106.74;;;6.59;78.69
34696;BME280;20918;51.138;17.370;2023-03-25T04:43:19;99110.86;;;6.58;78.42
34696;BME280;20918;51.138;17.370;2023-03-25T04:46:20;99110.87;;;6.48;78.49
34696;BME280;20918;51.138;17.370;2023-03-25T04:49:21;99110.27;;;6.51;78.86
34696;BME280;20918;51.138;17.370;2023-03-25T04:52:25;99116.89;;;6.56;79.11
34696;BME280;20918;51.138;17.370;2023-03-25T04:55:26;99117.91;;;6.55;79.18
34696;BME280;20918;51.138;17.370;2023-03-25T04:58:29;99125.48;;;6.55;79.55
34696;BME280;20918;51.138;17.370;2023-03-25T05:01:30;99126.80;;;6.59;79.82
34696;BME280;20918;51.138;17.370;2023-03-25T05:04:31;99124.77;;;6.66;79.94
34696;BME280;20918;51.138;17.370;2023-03-25T05:07:32;99123.17;;;6.72;80.15
34696;BME280;20918;51.138;17.370;2023-03-25T05:10:45;99124.58;;;6.81;80.31
34696;BME280;20918;51.138;17.370;2023-03-25T05:13:45;99128.46;;;6.90;80.40
34696;BME280;20918;51.138;17.370;2023-03-25T05:16:51;99126.44;;;6.99;80.38
34696;BME280;20918;51.138;17.370;2023-03-25T05:19:51;99117.58;;;7.11;80.37
34696;BME280;20918;51.138;17.370;2023-03-25T05:22:54;99114.81;;;7.22;80.37
34696;BME280;20918;51.138;17.370;2023-03-25T05:25:56;99117.61;;;7.32;80.49
34696;BME280;20918;51.138;17.370;2023-03-25T05:29:08;99118.42;;;7.53;80.60
34696;BME280;20918;51.138;17.370;2023-03-25T05:32:32;99116.30;;;7.89;80.68
34696;BME280;20918;51.138;17.370;2023-03-25T05:35:38;99111.56;;;8.47;80.55
34696;BME280;20918;51.138;17.370;2023-03-25T05:38:39;99109.23;;;8.98;80.02
34696;BME280;20918;51.138;17.370;2023-03-25T05:45:04;99110.16;;;9.57;78.58
34696;BME280;20918;51.138;17.370;2023-03-25T05:48:15;99109.80;;;9.77;78.35
34696;BME280;20918;51.138;17.370;2023-03-25T05:51:17;99115.02;;;10.02;77.91
34696;BME280;20918;51.138;17.370;2023-03-25T05:54:29;99112.00;;;10.54;77.82
34696;BME280;20918;51.138;17.370;2023-03-25T06:01:03;99109.05;;;11.52;76.53
34696;BME280;20918;51.138;17.370;2023-03-25T06:04:23;99113.04;;;12.07;75.50
34696;BME280;20918;51.138;17.370;2023-03-25T06:07:44;99112.09;;;12.57;74.77
34696;BME280;20918;51.138;17.370;2023-03-25T06:11:19;99115.23;;;13.08;73.84
34696;BME280;20918;51.138;17.370;2023-03-25T06:14:18;99119.77;;;13.55;72.77
34696;BME280;20918;51.138;17.370;2023-03-25T06:17:20;99118.65;;;13.80;71.48
34696;BME280;20918;51.138;17.370;2023-03-25T06:20:51;99110.26;;;13.96;69.98
34696;BME280;20918;51.138;17.370;2023-03-25T06:24:06;99113.21;;;14.03;69.47
34696;BME280;20918;51.138;17.370;2023-03-25T06:27:09;99114.25;;;14.28;69.52
34696;BME280;20918;51.138;17.370;2023-03-25T06:30:19;99114.73;;;14.40;67.83
34696;BME280;20918;51.138;17.370;2023-03-25T06:33:20;99120.77;;;14.36;66.88
34696;BME280;20918;51.138;17.370;2023-03-25T06:36:21;99121.65;;;14.45;66.30
34696;BME280;20918;51.138;17.370;2023-03-25T06:39:26;99123.44;;;14.43;65.83
34696;BME280;20918;51.138;17.370;2023-03-25T06:42:28;99124.17;;;14.36;65.57
34696;BME280;20918;51.138;17.370;2023-03-25T06:45:57;99125.48;;;14.00;64.76
34696;BME280;20918;51.138;17.370;2023-03-25T06:49:30;99125.29;;;13.42;64.60
34696;BME280;20918;51.138;17.370;2023-03-25T06:52:31;99129.50;;;12.92;64.96
34696;BME280;20918;51.138;17.370;2023-03-25T06:55:32;99128.31;;;12.61;65.63
34696;BME280;20918;51.138;17.370;2023-03-25T06:58:36;99124.52;;;12.39;65.98
34696;BME280;20918;51.138;17.370;2023-03-25T07:01:37;99119.25;;;12.22;66.07
34696;BME280;20918;51.138;17.370;2023-03-25T07:04:40;99117.91;;;12.09;66.37
34696;BME280;20918;51.138;17.370;2023-03-25T07:07:41;99111.89;;;12.00;66.55
34696;BME280;20918;51.138;17.370;2023-03-25T07:10:41;99107.33;;;11.92;66.85
34696;BME280;20918;51.138;17.370;2023-03-25T07:13:55;99106.64;;;11.87;66.86
34696;BME280;20918;51.138;17.370;2023-03-25T07:17:07;99105.94;;;11.80;66.83
34696;BME280;20918;51.138;17.370;2023-03-25T07:20:07;99109.87;;;11.72;67.01
34696;BME280;20918;51.138;17.370;2023-03-25T07:23:08;99115.20;;;11.63;67.08
34696;BME280;20918;51.138;17.370;2023-03-25T07:26:09;99118.39;;;11.57;67.22
34696;BME280;20918;51.138;17.370;2023-03-25T07:29:33;99121.98;;;11.49;67.30
34696;BME280;20918;51.138;17.370;2023-03-25T07:32:37;99133.55;;;11.39;67.48
34696;BME280;20918;51.138;17.370;2023-03-25T07:35:47;99130.33;;;11.31;67.97
34696;BME280;20918;51.138;17.370;2023-03-25T07:38:51;99122.84;;;11.24;67.86
34696;BME280;20918;51.138;17.370;2023-03-25T07:41:54;99119.71;;;11.21;68.06
34696;BME280;20918;51.138;17.370;2023-03-25T07:48:34;99114.64;;;11.18;68.68
34696;BME280;20918;51.138;17.370;2023-03-25T07:51:39;99113.49;;;11.18;68.86
34696;BME280;20918;51.138;17.370;2023-03-25T07:54:50;99123.72;;;11.21;68.97
34696;BME280;20918;51.138;17.370;2023-03-25T07:57:54;99123.63;;;11.20;68.97
34696;BME280;20918;51.138;17.370;2023-03-25T08:00:56;99125.20;;;11.15;69.35
34696;BME280;20918;51.138;17.370;2023-03-25T08:04:00;99126.02;;;11.08;69.37
34696;BME280;20918;51.138;17.370;2023-03-25T08:07:17;99126.16;;;11.01;69.85
34696;BME280;20918;51.138;17.370;2023-03-25T08:10:18;99123.17;;;10.95;70.32
34696;BME280;20918;51.138;17.370;2023-03-25T08:13:30;99118.03;;;10.95;70.54
34696;BME280;20918;51.138;17.370;2023-03-25T08:16:31;99118.20;;;10.96;70.44
34696;BME280;20918;51.138;17.370;2023-03-25T08:19:32;99117.92;;;10.93;70.00
34696;BME280;20918;51.138;17.370;2023-03-25T08:22:46;99114.21;;;10.86;70.10
34696;BME280;20918;51.138;17.370;2023-03-25T08:32:59;99118.50;;;10.76;70.22
34696;BME280;20918;51.138;17.370;2023-03-25T08:39:22;99125.29;;;10.92;70.49
34696;BME280;20918;51.138;17.370;2023-03-25T08:42:59;99123.26;;;11.00;70.14
34696;BME280;20918;51.138;17.370;2023-03-25T08:46:21;99118.47;;;11.05;69.91
34696;BME280;20918;51.138;17.370;2023-03-25T08:49:22;99121.77;;;11.10;70.03
34696;BME280;20918;51.138;17.370;2023-03-25T08:52:26;99121.71;;;11.21;70.26
34696;BME280;20918;51.138;17.370;2023-03-25T08:55:38;99114.17;;;11.36;70.06
34696;BME280;20918;51.138;17.370;2023-03-25T08:58:38;99112.92;;;11.51;69.45
34696;BME280;20918;51.138;17.370;2023-03-25T09:08:19;99108.83;;;12.53;68.59
34696;BME280;20918;51.138;17.370;2023-03-25T09:11:39;99100.66;;;12.93;67.91
34696;BME280;20918;51.138;17.370;2023-03-25T09:14:39;99093.88;;;13.14;67.10
34696;BME280;20918;51.138;17.370;2023-03-25T09:17:40;99091.73;;;13.23;66.20
34696;BME280;20918;51.138;17.370;2023-03-25T09:20:42;99087.91;;;13.21;65.18
34696;BME280;20918;51.138;17.370;2023-03-25T09:23:52;99088.92;;;13.10;64.60
34696;BME280;20918;51.138;17.370;2023-03-25T09:26:52;99083.48;;;13.03;65.09
34696;BME280;20918;51.138;17.370;2023-03-25T09:29:53;99080.88;;;12.97;64.11
34696;BME280;20918;51.138;17.370;2023-03-25T09:32:54;99082.77;;;12.83;62.83
34696;BME280;20918;51.138;17.370;2023-03-25T09:35:58;99087.48;;;12.65;63.44
34696;BME280;20918;51.138;17.370;2023-03-25T09:39:01;99090.00;;;12.53;63.11
34696;BME280;20918;51.138;17.370;2023-03-25T09:42:25;99088.79;;;12.40;62.46
34696;BME280;20918;51.138;17.370;2023-03-25T09:45:42;99093.20;;;12.27;63.07
34696;BME280;20918;51.138;17.370;2023-03-25T09:49:08;99089.83;;;12.18;63.66
34696;BME280;20918;51.138;17.370;2023-03-25T09:52:17;99095.23;;;12.15;63.96
34696;BME280;20918;51.138;17.370;2023-03-25T09:55:27;99100.70;;;12.07;64.45
34696;BME280;20918;51.138;17.370;2023-03-25T09:58:45;99103.41;;;11.98;65.42
34696;BME280;20918;51.138;17.370;2023-03-25T10:02:05;99104.10;;;11.89;66.18
34696;BME280;20918;51.138;17.370;2023-03-25T10:05:38;99098.29;;;11.79;66.84
34696;BME280;20918;51.138;17.370;2023-03-25T10:08:59;99091.88;;;11.70;67.65
34696;BME280;20918;51.138;17.370;2023-03-25T10:12:07;99087.96;;;11.73;68.27
34696;BME280;20918;51.138;17.370;2023-03-25T10:15:25;99091.89;;;11.89;68.44
34696;BME280;20918;51.138;17.370;2023-03-25T10:21:52;99086.33;;;12.26;68.42
34696;BME280;20918;51.138;17.370;2023-03-25T10:24:59;99082.50;;;12.44;67.70
34696;BME280;20918;51.138;17.370;2023-03-25T10:28:01;99080.45;;;12.50;66.58
34696;BME280;20918;51.138;17.370;2023-03-25T10:31:04;99078.70;;;12.47;66.21
34696;BME280;20918;51.138;17.370;2023-03-25T10:34:20;99074.10;;;12.37;64.31
34696;BME280;20918;51.138;17.370;2023-03-25T10:37:25;99070.78;;;12.20;63.94
34696;BME280;20918;51.138;17.370;2023-03-25T10:40:38;99066.23;;;12.17;64.44
34696;BME280;20918;51.138;17.370;2023-03-25T10:43:43;99058.79;;;12.25;64.19
34696;BME280;20918;51.138;17.370;2023-03-25T10:46:51;99058.30;;;12.34;64.30
34696;BME280;20918;51.138;17.370;2023-03-25T10:49:54;99057.83;;;12.40;63.85
34696;BME280;20918;51.138;17.370;2023-03-25T10:52:57;99059.41;;;12.40;63.52
34696;BME280;20918;51.138;17.370;2023-03-25T10:56:20;99057.12;;;12.35;63.42
34696;BME280;20918;51.138;17.370;2023-03-25T11:02:23;99053.88;;;12.19;62.35
34696;BME280;20918;51.138;17.370;2023-03-25T11:05:26;99056.55;;;12.35;62.84
34696;BME280;20918;51.138;17.370;2023-03-25T11:08:28;99052.54;;;12.88;63.61
34696;BME280;20918;51.138;17.370;2023-03-25T11:11:32;99044.56;;;13.37;63.22
34696;BME280;20918;51.138;17.370;2023-03-25T11:14:39;99038.80;;;13.80;62.23
34696;BME280;20918;51.138;17.370;2023-03-25T11:17:40;99024.11;;;13.94;60.66
34696;BME280;20918;51.138;17.370;2023-03-25T11:20:50;99022.25;;;14.23;59.79
34696;BME280;20918;51.138;17.370;2023-03-25T11:23:52;99023.44;;;14.51;59.19
34696;BME280;20918;51.138;17.370;2023-03-25T11:26:53;99018.09;;;14.84;57.97
34696;BME280;20918;51.138;17.370;2023-03-25T11:29:55;99011.85;;;15.15;56.13
34696;BME280;20918;51.138;17.370;2023-03-25T11:33:04;99004.19;;;15.16;55.00
34696;BME280;20918;51.138;17.370;2023-03-25T11:42:29;99006.67;;;15.28;53.55
34696;BME280;20918;51.138;17.370;2023-03-25T11:45:32;99004.86;;;15.15;53.05
34696;BME280;20918;51.138;17.370;2023-03-25T11:48:35;99008.09;;;15.05;52.01
34696;BME280;20918;51.138;17.370;2023-03-25T11:51:37;98999.41;;;14.98;52.56
34696;BME280;20918;51.138;17.370;2023-03-25T11:54:38;98992.94;;;15.02;52.42
34696;BME280;20918;51.138;17.370;2023-03-25T11:57:39;98994.15;;;14.83;51.59
34696;BME280;20918;51.138;17.370;2023-03-25T12:00:45;98999.02;;;14.67;51.97
34696;BME280;20918;51.138;17.370;2023-03-25T12:03:46;98994.31;;;14.52;51.77
34696;BME280;20918;51.138;17.370;2023-03-25T12:06:54;98992.71;;;14.32;51.28
34696;BME280;20918;51.138;17.370;2023-03-25T12:19:42;98983.42;;;14.29;51.13
34696;BME280;20918;51.138;17.370;2023-03-25T12:26:05;98985.02;;;14.59;51.24
34696;BME280;20918;51.138;17.370;2023-03-25T12:32:24;98990.38;;;14.26;51.01
34696;BME280;20918;51.138;17.370;2023-03-25T12:55:27;99048.52;;;11.97;53.92
34696;BME280;20918;51.138;17.370;2023-03-25T13:04:58;99065.05;;;11.05;57.79
34696;BME280;20918;51.138;17.370;2023-03-25T13:08:06;99073.98;;;10.84;59.34
34696;BME280;20918;51.138;17.370;2023-03-25T13:11:09;99082.37;;;10.69;60.39
34696;BME280;20918;51.138;17.370;2023-03-25T13:17:36;99076.81;;;10.47;63.61
34696;BME280;20918;51.138;17.370;2023-03-25T13:20:42;99079.98;;;10.33;64.24
34696;BME280;20918;51.138;17.370;2023-03-25T13:23:45;99079.10;;;10.19;65.28
34696;BME280;20918;51.138;17.370;2023-03-25T13:26:47;99079.23;;;10.08;66.16
34696;BME280;20918;51.138;17.370;2023-03-25T13:29:53;99077.06;;;9.99;66.95
34696;BME280;20918;51.138;17.370;2023-03-25T13:32:56;99077.20;;;10.14;68.55
34696;BME280;20918;51.138;17.370;2023-03-25T13:36:08;99074.90;;;10.31;68.72
34696;BME280;20918;51.138;17.370;2023-03-25T13:39:21;99066.75;;;10.46;68.62
34696;BME280;20918;51.138;17.370;2023-03-25T13:42:37;99070.77;;;10.62;68.84
34696;BME280;20918;51.138;17.370;2023-03-25T13:51:48;99063.02;;;11.19;68.67
34696;BME280;20918;51.138;17.370;2023-03-25T13:54:50;99059.25;;;11.37;67.60
34696;BME280;20918;51.138;17.370;2023-03-25T14:01:05;99061.34;;;11.36;65.91
34696;BME280;20918;51.138;17.370;2023-03-25T14:13:56;99053.34;;;11.57;62.88
34696;BME280;20918;51.138;17.370;2023-03-25T14:16:58;99052.80;;;11.38;62.22
34696;BME280;20918;51.138;17.370;2023-03-25T14:19:59;99052.47;;;11.21;62.39
34696;BME280;20918;51.138;17.370;2023-03-25T14:23:01;99046.76;;;11.06;62.38
34696;BME280;20918;51.138;17.370;2023-03-25T14:26:09;99051.16;;;10.91;62.52
34696;BME280;20918;51.138;17.370;2023-03-25T14:29:30;99052.00;;;10.82;62.90
34696;BME280;20918;51.138;17.370;2023-03-25T14:32:40;99048.20;;;10.75;62.57
34696;BME280;20918;51.138;17.370;2023-03-25T14:35:45;99052.92;;;10.71;62.86
34696;BME280;20918;51.138;17.370;2023-03-25T14:38:50;99046.34;;;10.82;62.70
34696;BME280;20918;51.138;17.370;2023-03-25T14:48:23;99038.11;;;11.53;61.89
34696;BME280;20918;51.138;17.370;2023-03-25T14:54:29;99035.46;;;11.72;60.84
34696;BME280;20918;51.138;17.370;2023-03-25T14:57:31;99038.73;;;11.70;60.45
34696;BME280;20918;51.138;17.370;2023-03-25T15:00:43;99043.22;;;11.65;60.23
34696;BME280;20918;51.138;17.370;2023-03-25T15:03:48;99043.66;;;11.50;59.85
34696;BME280;20918;51.138;17.370;2023-03-25T15:06:50;99053.60;;;11.34;60.28
34696;BME280;20918;51.138;17.370;2023-03-25T15:09:51;99052.16;;;11.22;60.13
34696;BME280;20918;51.138;17.370;2023-03-25T15:13:01;99042.58;;;11.11;60.19
34696;BME280;20918;51.138;17.370;2023-03-25T15:16:04;99041.14;;;11.02;60.22
34696;BME280;20918;51.138;17.370;2023-03-25T15:19:07;99041.10;;;10.95;60.68
34696;BME280;20918;51.138;17.370;2023-03-25T15:22:16;99044.52;;;10.88;60.49
34696;BME280;20918;51.138;17.370;2023-03-25T15:25:17;99049.56;;;10.81;60.35
34696;BME280;20918;51.138;17.370;2023-03-25T15:28:21;99051.60;;;10.75;60.04
34696;BME280;20918;51.138;17.370;2023-03-25T15:41:17;99074.05;;;10.31;60.58
34696;BME280;20918;51.138;17.370;2023-03-25T15:47:39;99079.20;;;9.89;62.47
34696;BME280;20918;51.138;17.370;2023-03-25T15:56:56;99068.39;;;9.41;64.25
34696;BME280;20918;51.138;17.370;2023-03-25T16:00:02;99072.89;;;9.30;64.35
34696;BME280;20918;51.138;17.370;2023-03-25T16:03:13;99076.61;;;9.20;64.72
34696;BME280;20918;51.138;17.370;2023-03-25T16:06:15;99073.95;;;9.13;65.55
34696;BME280;20918;51.138;17.370;2023-03-25T16:09:20;99068.54;;;9.02;66.02
34696;BME280;20918;51.138;17.370;2023-03-25T16:12:25;99062.35;;;8.94;66.32
34696;BME280;20918;51.138;17.370;2023-03-25T16:15:29;99058.18;;;8.93;66.66
34696;BME280;20918;51.138;17.370;2023-03-25T16:18:30;99054.04;;;8.97;67.10
34696;BME280;20918;51.138;17.370;2023-03-25T16:21:31;99050.59;;;9.01;67.27
34696;BME280;20918;51.138;17.370;2023-03-25T16:24:32;99048.21;;;9.04;67.52
34696;BME280;20918;51.138;17.370;2023-03-25T16:27:41;99041.92;;;9.05;67.66
34696;BME280;20918;51.138;17.370;2023-03-25T16:30:46;99038.75;;;9.02;67.89
34696;BME280;20918;51.138;17.370;2023-03-25T16:33:48;99044.53;;;8.96;67.78
34696;BME280;20918;51.138;17.370;2023-03-25T16:36:49;99044.33;;;8.90;68.09
34696;BME280;20918;51.138;17.370;2023-03-25T16:40:03;99042.73;;;8.84;68.10
34696;BME280;20918;51.138;17.370;2023-03-25T16:43:10;99046.83;;;8.80;68.06
34696;BME280;20918;51.138;17.370;2023-03-25T16:46:13;99046.86;;;8.76;67.81
34696;BME280;20918;51.138;17.370;2023-03-25T16:49:25;99046.20;;;8.73;67.80
34696;BME280;20918;51.138;17.370;2023-03-25T16:52:31;99051.63;;;8.69;67.64
34696;BME280;20918;51.138;17.370;2023-03-25T16:56:19;99053.91;;;8.64;67.57
34696;BME280;20918;51.138;17.370;2023-03-25T16:59:09;99059.71;;;8.60;67.71
34696;BME280;20918;51.138;17.370;2023-03-25T17:02:36;99058.30;;;8.52;67.68
34696;BME280;20918;51.138;17.370;2023-03-25T17:05:50;99058.93;;;8.44;67.76
34696;BME280;20918;51.138;17.370;2023-03-25T17:08:53;99063.70;;;8.34;67.72
34696;BME280;20918;51.138;17.370;2023-03-25T17:11:55;99072.63;;;8.24;67.91
34696;BME280;20918;51.138;17.370;2023-03-25T17:15:02;99074.19;;;8.11;67.94
34696;BME280;20918;51.138;17.370;2023-03-25T17:18:06;99074.87;;;7.98;68.25
34696;BME280;20918;51.138;17.370;2023-03-25T17:21:18;99072.49;;;7.89;68.32
34696;BME280;20918;51.138;17.370;2023-03-25T17:24:21;99072.18;;;7.81;68.40
34696;BME280;20918;51.138;17.370;2023-03-25T17:27:23;99070.61;;;7.73;68.47
34696;BME280;20918;51.138;17.370;2023-03-25T17:33:31;99072.45;;;7.62;68.68
34696;BME280;20918;51.138;17.370;2023-03-25T17:36:39;99070.64;;;7.61;68.83
34696;BME280;20918;51.138;17.370;2023-03-25T17:39:40;99068.77;;;7.61;68.88
34696;BME280;20918;51.138;17.370;2023-03-25T17:42:48;99067.10;;;7.61;69.01
34696;BME280;20918;51.138;17.370;2023-03-25T17:45:49;99073.64;;;7.61;68.96
34696;BME280;20918;51.138;17.370;2023-03-25T17:48:50;99074.58;;;7.59;69.11
34696;BME280;20918;51.138;17.370;2023-03-25T17:51:54;99071.67;;;7.58;69.32
34696;BME280;20918;51.138;17.370;2023-03-25T17:54:55;99070.33;;;7.56;69.42
34696;BME280;20918;51.138;17.370;2023-03-25T17:57:55;99066.95;;;7.52;69.53
34696;BME280;20918;51.138;17.370;2023-03-25T18:00:57;99063.45;;;7.47;69.67
34696;BME280;20918;51.138;17.370;2023-03-25T18:04:00;99059.42;;;7.42;69.60
34696;BME280;20918;51.138;17.370;2023-03-25T18:07:07;99056.42;;;7.39;69.95
34696;BME280;20918;51.138;17.370;2023-03-25T18:10:11;99054.67;;;7.39;69.90
34696;BME280;20918;51.138;17.370;2023-03-25T18:13:16;99046.17;;;7.41;70.26
34696;BME280;20918;51.138;17.370;2023-03-25T18:16:18;99051.09;;;7.43;70.19
34696;BME280;20918;51.138;17.370;2023-03-25T18:19:23;99055.45;;;7.43;70.22
34696;BME280;20918;51.138;17.370;2023-03-25T18:22:24;99061.52;;;7.44;70.36
34696;BME280;20918;51.138;17.370;2023-03-25T18:25:25;99064.78;;;7.45;70.42
34696;BME280;20918;51.138;17.370;2023-03-25T18:28:26;99065.02;;;7.44;70.40
34696;BME280;20918;51.138;17.370;2023-03-25T18:31:27;99071.90;;;7.42;70.57
34696;BME280;20918;51.138;17.370;2023-03-25T18:34:28;99071.44;;;7.38;70.57
34696;BME280;20918;51.138;17.370;2023-03-25T18:37:28;99083.13;;;7.36;70.71
34696;BME280;20918;51.138;17.370;2023-03-25T18:40:33;99082.05;;;7.33;70.78
34696;BME280;20918;51.138;17.370;2023-03-25T18:43:34;99080.46;;;7.32;70.94
34696;BME280;20918;51.138;17.370;2023-03-25T18:46:35;99079.05;;;7.30;70.97
34696;BME280;20918;51.138;17.370;2023-03-25T18:49:36;99076.66;;;7.30;71.01
34696;BME280;20918;51.138;17.370;2023-03-25T18:52:36;99084.94;;;7.30;71.22
34696;BME280;20918;51.138;17.370;2023-03-25T18:55:37;99086.77;;;7.29;71.34
34696;BME280;20918;51.138;17.370;2023-03-25T18:58:40;99086.27;;;7.27;71.37
34696;BME280;20918;51.138;17.370;2023-03-25T19:01:41;99087.43;;;7.25;71.66
34696;BME280;20918;51.138;17.370;2023-03-25T19:04:42;99097.40;;;7.22;72.06
34696;BME280;20918;51.138;17.370;2023-03-25T19:07:45;99099.39;;;7.16;72.48
34696;BME280;20918;51.138;17.370;2023-03-25T19:10:46;99110.33;;;7.21;72.61
34696;BME280;20918;51.138;17.370;2023-03-25T19:13:46;99114.35;;;7.18;72.82